Time;durP1;ratioP1;P1;durP2;ratioP2;P2;SDS_P1;SDS_P2;PMS_P1;PMS_P2;Temp;Humidity;BMP_temperature;BMP_pressure;BME280_temperature;BME280_humidity;BME280_pressure;Samples;Min_cycle;Max_cycle;Signal;HPM_P1;HPM_P2
2021/12/09 00:01:20;;;;;;;6.00;3.10;;;8.20;73.40;;;;;;2554906;53;20964;-74
2021/12/09 00:03:47;;;;;;;7.60;3.80;;;8.20;73.40;;;;;;2549308;53;21766;-73
2021/12/09 00:06:15;;;;;;;7.25;4.32;;;8.20;73.40;;;;;;2314405;53;21871;-73
2021/12/09 00:08:42;;;;;;;6.20;3.40;;;8.20;73.30;;;;;;2291367;55;20944;-73
2021/12/09 00:11:08;;;;;;;6.87;3.90;;;8.20;73.30;;;;;;2553004;53;21003;-73
2021/12/09 00:13:35;;;;;;;5.82;3.03;;;8.20;73.20;;;;;;2314937;54;20959;-74
2021/12/09 00:16:01;;;;;;;5.82;3.53;;;8.10;73.00;;;;;;2317254;54;21681;-74
2021/12/09 00:18:28;;;;;;;7.40;3.37;;;8.10;72.90;;;;;;2309258;53;21039;-73
2021/12/09 00:20:54;;;;;;;6.40;3.17;;;8.10;72.80;;;;;;2285938;55;20957;-73
2021/12/09 00:23:20;;;;;;;6.40;3.53;;;8.10;72.70;;;;;;2314190;55;20915;-74
2021/12/09 00:25:46;;;;;;;6.18;3.22;;;8.10;72.70;;;;;;2314410;55;20928;-74
2021/12/09 00:28:13;;;;;;;5.57;3.60;;;8.00;73.30;;;;;;2294965;54;21111;-74
2021/12/09 00:30:42;;;;;;;6.57;3.80;;;8.10;72.80;;;;;;2310962;54;20974;-73
2021/12/09 00:33:15;;;;;;;6.18;3.50;;;8.00;72.80;;;;;;2529873;54;20967;-74
2021/12/09 00:35:51;;;;;;;6.43;3.63;;;8.00;72.80;;;;;;2309861;54;21015;-74
2021/12/09 00:38:33;;;;;;;7.53;3.65;;;8.00;72.90;;;;;;2553383;53;20995;-73
2021/12/09 00:41:20;;;;;;;9.45;3.85;;;8.00;73.00;;;;;;2315636;54;21003;-74
2021/12/09 00:43:46;;;;;;;7.75;3.30;;;8.00;72.90;;;;;;2315144;53;20941;-74
2021/12/09 00:46:13;;;;;;;6.35;2.97;;;8.00;73.20;;;;;;2560855;53;20944;-74
2021/12/09 00:48:40;;;;;;;6.62;3.65;;;8.00;73.30;;;;;;2561272;53;20947;-73
2021/12/09 00:51:07;;;;;;;8.82;3.65;;;8.00;73.30;;;;;;2304398;54;21591;-74
2021/12/09 00:53:34;;;;;;;6.80;2.92;;;8.00;73.40;;;;;;2542746;54;21479;-73
2021/12/09 00:56:01;;;;;;;5.62;3.10;;;8.00;73.30;;;;;;2305572;54;21063;-73
2021/12/09 00:58:28;;;;;;;8.60;3.80;;;8.00;73.40;;;;;;2522842;54;20948;-74
2021/12/09 01:00:54;;;;;;;6.70;3.10;;;8.00;73.30;;;;;;2543815;54;21523;-74
2021/12/09 01:03:22;;;;;;;5.57;3.00;;;8.00;73.30;;;;;;2299286;54;21011;-73
2021/12/09 01:05:53;;;;;;;8.57;3.42;;;8.00;73.30;;;;;;2317962;54;20966;-73
2021/12/09 01:08:31;;;;;;;;;;;8.00;73.30;;;;;;2509207;54;21032;-73
2021/12/09 01:10:57;;;;;;;4.03;2.15;;;8.00;72.50;;;;;;2310666;54;20071;-72
2021/12/09 01:13:27;;;;;;;5.70;2.62;;;8.00;73.00;;;;;;2314386;55;21491;-74
2021/12/09 01:15:53;;;;;;;5.35;2.72;;;8.00;73.00;;;;;;2294290;54;20975;-73
2021/12/09 01:18:19;;;;;;;5.40;2.67;;;8.00;73.00;;;;;;2312547;54;20975;-74
2021/12/09 01:20:46;;;;;;;6.18;2.72;;;8.00;73.00;;;;;;2313831;54;20980;-73
2021/12/09 01:23:12;;;;;;;5.50;2.30;;;7.90;72.90;;;;;;2554816;54;20990;-74
2021/12/09 01:25:38;;;;;;;5.60;2.50;;;7.90;72.90;;;;;;2311111;53;20963;-74
2021/12/09 01:28:14;;;;;;;4.40;2.25;;;7.90;72.90;;;;;;2524711;53;21030;-73
2021/12/09 01:30:41;;;;;;;4.45;2.37;;;7.90;73.00;;;;;;2292746;54;21019;-74
2021/12/09 01:33:09;;;;;;;4.40;2.08;;;7.90;72.90;;;;;;2531634;54;21019;-71
2021/12/09 01:35:35;;;;;;;4.40;1.77;;;7.90;72.80;;;;;;2310772;54;21002;-73
2021/12/09 01:38:11;;;;;;;5.20;2.17;;;7.90;72.70;;;;;;2314523;54;21910;-73
2021/12/09 01:40:38;;;;;;;3.60;1.90;;;7.90;72.50;;;;;;2292098;54;21492;-72
2021/12/09 01:43:04;;;;;;;5.22;2.15;;;7.80;72.30;;;;;;2521407;54;20939;-74
2021/12/09 01:45:30;;;;;;;4.90;2.30;;;7.80;72.00;;;;;;2314885;54;20975;-73
2021/12/09 01:47:57;;;;;;;4.70;2.33;;;7.80;71.80;;;;;;2320198;54;20969;-74
2021/12/09 01:50:26;;;;;;;5.07;2.30;;;7.70;71.60;;;;;;2312319;54;20969;-73
2021/12/09 01:52:53;;;;;;;6.00;2.78;;;7.70;71.70;;;;;;2311758;54;21726;-73
2021/12/09 01:55:19;;;;;;;5.47;2.75;;;7.60;71.50;;;;;;2324715;54;21036;-73
2021/12/09 01:57:47;;;;;;;5.18;2.40;;;7.60;71.50;;;;;;2288551;54;20945;-73
2021/12/09 02:00:17;;;;;;;5.45;2.40;;;7.50;71.50;;;;;;2554647;54;20946;-73
2021/12/09 02:02:43;;;;;;;4.90;2.37;;;7.50;72.30;;;;;;2315057;54;20963;-73
2021/12/09 02:05:22;;;;;;;4.75;2.22;;;7.50;71.70;;;;;;2314565;54;20963;-74
2021/12/09 02:07:49;;;;;;;5.47;2.37;;;7.40;71.70;;;;;;2554776;54;20954;-73
2021/12/09 02:10:19;;;;;;;5.60;2.25;;;7.40;71.80;;;;;;2319131;54;21579;-73
2021/12/09 02:12:47;;;;;;;5.00;1.98;;;7.40;71.80;;;;;;2290621;54;20931;-73
2021/12/09 02:15:13;;;;;;;4.85;2.17;;;7.30;71.80;;;;;;2317676;54;21661;-73
2021/12/09 02:17:40;;;;;;;6.07;1.65;;;7.30;72.00;;;;;;2341624;54;20949;-73
2021/12/09 02:20:08;;;;;;;6.40;2.80;;;7.30;72.20;;;;;;2327175;54;20978;-71
2021/12/09 02:22:34;;;;;;;7.00;2.90;;;7.20;72.30;;;;;;2333615;54;20940;-73
2021/12/09 02:25:04;;;;;;;5.15;2.47;;;7.30;72.50;;;;;;2342045;54;21754;-72
2021/12/09 02:27:31;;;;;;;3.85;2.00;;;7.20;72.50;;;;;;2555055;53;20902;-71
2021/12/09 02:33:25;;;;;;;6.70;2.20;;;7.20;72.50;;;;;;2588230;53;21460;-71
2021/12/09 02:35:51;;;;;;;6.47;2.12;;;7.20;72.60;;;;;;2315528;54;20941;-72
2021/12/09 02:38:18;;;;;;;5.18;2.17;;;7.20;72.60;;;;;;2535884;54;21446;-72
2021/12/09 02:40:44;;;;;;;4.50;2.30;;;7.20;72.80;;;;;;2333985;54;21385;-73
2021/12/09 02:43:13;;;;;;;5.57;2.53;;;7.10;72.70;;;;;;2587203;53;21737;-72
2021/12/09 02:45:42;;;;;;;5.20;2.58;;;7.10;72.80;;;;;;2341961;54;21000;-72
2021/12/09 02:48:08;;;;;;;4.62;2.37;;;7.10;72.90;;;;;;2587419;53;20952;-73
2021/12/09 02:50:35;;;;;;;5.93;2.60;;;7.10;72.80;;;;;;2340740;54;20950;-73
2021/12/09 02:53:01;;;;;;;5.35;2.17;;;7.10;72.80;;;;;;2328714;54;21408;-73
2021/12/09 02:55:27;;;;;;;5.90;2.58;;;7.10;72.80;;;;;;2312574;54;20953;-73
2021/12/09 02:57:56;;;;;;;6.30;2.22;;;7.10;73.00;;;;;;2574410;53;21628;-72
2021/12/09 03:00:22;;;;;;;4.43;2.10;;;7.10;73.00;;;;;;2318652;55;20949;-72
2021/12/09 03:02:54;;;;;;;5.97;2.28;;;7.10;73.10;;;;;;2341562;54;20976;-73
2021/12/09 03:05:20;;;;;;;5.28;1.83;;;7.10;73.10;;;;;;2334669;54;20911;-73
2021/12/09 03:07:47;;;;;;;3.90;1.80;;;7.10;73.10;;;;;;2567882;53;21001;-72
2021/12/09 03:10:24;;;;;;;4.30;1.67;;;7.10;73.10;;;;;;2580590;53;20964;-72
2021/12/09 03:12:53;;;;;;;4.68;1.60;;;7.10;73.10;;;;;;2321826;54;20996;-72
2021/12/09 03:15:19;;;;;;;4.10;1.75;;;7.10;73.10;;;;;;2325754;54;20985;-71
2021/12/09 03:17:47;;;;;;;6.35;1.90;;;7.10;73.10;;;;;;2313851;54;21006;-73
2021/12/09 03:20:14;;;;;;;6.37;1.92;;;7.10;73.20;;;;;;2338781;54;20949;-72
2021/12/09 03:22:40;;;;;;;5.05;2.20;;;7.10;73.20;;;;;;2569676;53;21050;-72
2021/12/09 03:25:07;;;;;;;4.47;1.92;;;7.10;73.20;;;;;;2330899;54;20936;-73
2021/12/09 03:27:34;;;;;;;5.82;2.03;;;7.10;73.30;;;;;;2318098;54;21486;-73
2021/12/09 03:30:00;;;;;;;4.53;2.00;;;7.10;73.40;;;;;;2325213;54;20938;-72
2021/12/09 03:32:26;;;;;;;4.20;2.08;;;7.10;73.40;;;;;;2334809;54;20987;-72
2021/12/09 03:34:52;;;;;;;3.72;1.48;;;7.10;73.50;;;;;;2341693;54;20933;-73
2021/12/09 03:37:21;;;;;;;4.00;1.77;;;7.10;73.50;;;;;;2567315;53;20938;-73
2021/12/09 03:39:47;;;;;;;4.72;2.20;;;7.10;73.50;;;;;;2332765;54;20937;-73
2021/12/09 03:42:16;;;;;;;4.25;2.33;;;7.10;73.60;;;;;;2335677;54;20999;-73
2021/12/09 03:44:43;;;;;;;5.85;2.40;;;7.10;73.70;;;;;;2324524;54;20929;-72
2021/12/09 03:47:11;;;;;;;4.70;2.33;;;7.10;73.70;;;;;;2588004;53;21063;-70
2021/12/09 03:49:38;;;;;;;5.07;2.28;;;7.20;73.70;;;;;;2316550;54;21514;-73
2021/12/09 03:52:05;;;;;;;5.80;2.47;;;7.20;73.70;;;;;;2543390;54;20932;-71
2021/12/09 03:54:34;;;;;;;3.95;2.10;;;7.20;73.70;;;;;;2555568;53;20983;-73
2021/12/09 03:57:00;;;;;;;3.85;1.70;;;7.20;73.70;;;;;;2588100;53;20973;-73
2021/12/09 03:59:26;;;;;;;4.28;1.87;;;7.20;73.70;;;;;;2338059;54;21490;-73
2021/12/09 04:01:54;;;;;;;5.80;1.73;;;7.20;73.70;;;;;;2325393;54;20941;-72
2021/12/09 04:04:21;;;;;;;6.72;2.58;;;7.20;73.70;;;;;;2341632;54;20945;-73
2021/12/09 04:06:47;;;;;;;4.10;1.65;;;7.30;73.80;;;;;;2342112;54;21005;-73
2021/12/09 04:09:14;;;;;;;5.80;2.05;;;7.20;73.70;;;;;;2323427;54;20958;-73
2021/12/09 04:11:41;;;;;;;5.00;2.65;;;7.30;73.80;;;;;;2337456;54;21394;-73
2021/12/09 04:14:07;;;;;;;5.45;2.65;;;7.30;73.80;;;;;;2580429;53;20963;-73
2021/12/09 04:16:33;;;;;;;5.00;2.70;;;7.30;73.80;;;;;;2563245;53;20936;-72
2021/12/09 04:19:00;;;;;;;4.75;2.53;;;7.30;73.80;;;;;;2341192;54;20908;-73
2021/12/09 04:21:27;;;;;;;4.57;2.28;;;7.30;73.90;;;;;;2586861;53;20972;-73
2021/12/09 04:27:34;;;;;;;4.57;2.22;;;7.40;73.80;;;;;;2588490;53;21378;-72
2021/12/09 04:30:03;;;;;;;5.75;2.30;;;7.40;73.80;;;;;;2315142;54;21036;-74
2021/12/09 04:32:29;;;;;;;4.82;2.50;;;7.40;73.80;;;;;;2560900;53;21768;-73
2021/12/09 04:34:57;;;;;;;5.10;2.17;;;7.40;73.80;;;;;;2341262;54;21012;-73
2021/12/09 04:37:24;;;;;;;4.97;2.20;;;7.40;73.80;;;;;;2341901;54;20973;-73
2021/12/09 04:39:50;;;;;;;4.85;2.17;;;7.40;73.80;;;;;;2341497;54;21051;-73
2021/12/09 04:42:16;;;;;;;5.37;2.47;;;7.40;73.80;;;;;;2587188;53;20965;-73
2021/12/09 04:44:44;;;;;;;4.93;2.20;;;7.40;73.80;;;;;;2341512;54;20936;-73
2021/12/09 04:47:10;;;;;;;4.65;2.22;;;7.50;73.80;;;;;;2563238;53;20971;-72
2021/12/09 04:49:36;;;;;;;4.30;2.40;;;7.50;73.80;;;;;;2319585;54;20926;-73
2021/12/09 04:52:04;;;;;;;5.50;2.33;;;7.50;73.80;;;;;;2333943;54;20941;-74
2021/12/09 04:54:30;;;;;;;4.32;2.28;;;7.50;73.70;;;;;;2566846;53;20935;-74
2021/12/09 04:56:57;;;;;;;5.07;2.17;;;7.50;73.70;;;;;;2331332;54;20921;-73
2021/12/09 04:59:24;;;;;;;6.43;2.78;;;7.50;73.70;;;;;;2587543;53;21016;-74
2021/12/09 05:01:50;;;;;;;5.65;2.35;;;7.50;73.60;;;;;;2587570;53;20933;-72
2021/12/09 05:04:17;;;;;;;4.78;2.05;;;7.50;73.60;;;;;;2586817;53;20941;-73
2021/12/09 05:06:43;;;;;;;5.87;2.30;;;7.50;73.60;;;;;;2318273;54;21005;-73
2021/12/09 05:09:16;;;;;;;4.45;2.47;;;7.50;73.60;;;;;;2322860;54;21267;-73
2021/12/09 05:14:19;;;;;;;7.82;2.65;;;7.50;73.30;;;;;;2340874;54;20948;-71
2021/12/09 05:16:47;;;;;;;7.03;2.85;;;7.50;73.20;;;;;;2341657;54;20948;-73
2021/12/09 05:19:14;;;;;;;5.78;2.55;;;7.50;73.20;;;;;;2341766;54;21096;-71
2021/12/09 05:21:40;;;;;;;5.47;2.60;;;7.50;73.30;;;;;;2587792;53;20936;-73
2021/12/09 05:24:09;;;;;;;5.85;2.45;;;7.50;73.30;;;;;;2341679;54;20965;-73
2021/12/09 05:26:44;;;;;;;5.00;2.33;;;7.50;73.40;;;;;;2565712;53;21438;-74
2021/12/09 05:29:11;;;;;;;4.32;2.12;;;7.50;73.50;;;;;;2337734;54;20945;-71
2021/12/09 05:34:22;;;;;;;4.72;2.05;;;7.50;73.50;;;;;;2337138;54;20954;-73
2021/12/09 05:36:48;;;;;;;3.45;1.85;;;7.50;73.50;;;;;;2323885;54;20963;-73
2021/12/09 05:39:15;;;;;;;4.55;2.03;;;7.50;73.50;;;;;;2571651;53;21078;-73
2021/12/09 05:41:42;;;;;;;5.72;2.25;;;7.50;73.60;;;;;;2328486;54;21465;-74
2021/12/09 05:44:08;;;;;;;5.47;2.20;;;7.50;73.60;;;;;;2318057;54;20976;-73
2021/12/09 05:46:36;;;;;;;4.47;2.10;;;7.50;73.60;;;;;;2587505;53;21398;-72
2021/12/09 05:49:03;;;;;;;6.20;2.47;;;7.50;73.60;;;;;;2345405;54;20928;-73
2021/12/09 05:51:31;;;;;;;4.50;2.65;;;7.50;73.60;;;;;;2318280;54;20978;-74
2021/12/09 05:54:01;;;;;;;7.10;2.70;;;7.50;73.60;;;;;;2321919;54;20945;-73
2021/12/09 05:56:28;;;;;;;5.65;2.80;;;7.60;73.60;;;;;;2581474;53;20925;-73
2021/12/09 05:58:56;;;;;;;6.28;3.35;;;7.50;73.50;;;;;;2300472;54;20943;-73
2021/12/09 06:01:28;;;;;;;6.07;3.17;;;7.50;73.50;;;;;;2336974;54;21092;-72
2021/12/09 06:03:54;;;;;;;8.70;3.35;;;7.50;73.30;;;;;;2315051;54;20986;-73
2021/12/09 06:06:20;;;;;;;6.50;2.70;;;7.60;73.40;;;;;;2322357;54;20917;-73
2021/12/09 06:08:47;;;;;;;4.32;2.17;;;7.60;73.50;;;;;;2341608;54;21008;-73
2021/12/09 06:11:13;;;;;;;6.37;2.80;;;7.50;73.40;;;;;;2318951;54;21031;-74
2021/12/09 06:13:40;;;;;;;4.60;2.40;;;7.50;73.40;;;;;;2333290;54;21014;-74
2021/12/09 06:16:10;;;;;;;6.07;2.15;;;7.50;73.40;;;;;;2327150;54;20937;-74
2021/12/09 06:18:36;;;;;;;5.43;2.78;;;7.50;73.40;;;;;;2341441;54;21301;-73
2021/12/09 06:21:03;;;;;;;4.87;2.42;;;7.50;73.40;;;;;;2341620;54;21741;-72
2021/12/09 06:23:29;;;;;;;7.20;2.53;;;7.60;73.60;;;;;;2576005;53;20975;-73
2021/12/09 06:25:55;;;;;;;10.52;4.03;;;7.60;73.60;;;;;;2323932;54;21000;-73
2021/12/09 06:28:22;;;;;;;10.48;4.60;;;7.60;73.60;;;;;;2330926;54;21026;-74
2021/12/09 06:30:48;;;;;;;12.57;4.28;;;7.60;73.50;;;;;;2552032;54;20946;-73
2021/12/09 06:33:14;;;;;;;9.35;4.72;;;7.60;73.50;;;;;;2312009;54;20956;-73
2021/12/09 06:35:41;;;;;;;11.73;5.22;;;7.60;73.50;;;;;;2334155;54;21020;-74
2021/12/09 06:38:12;;;;;;;9.52;4.43;;;7.70;73.50;;;;;;2341833;54;21031;-73
2021/12/09 06:40:38;;;;;;;7.68;3.90;;;7.60;73.40;;;;;;2327628;54;20990;-73
2021/12/09 06:43:06;;;;;;;6.68;3.70;;;7.60;73.30;;;;;;2332893;54;20916;-72
2021/12/09 06:45:32;;;;;;;7.05;3.42;;;7.60;73.30;;;;;;2587817;53;21529;-74
2021/12/09 06:47:59;;;;;;;9.15;3.67;;;7.60;73.40;;;;;;2336438;54;21073;-74
2021/12/09 06:50:25;;;;;;;5.40;2.78;;;7.60;73.30;;;;;;2323734;54;21021;-74
2021/12/09 06:52:55;;;;;;;6.12;2.92;;;7.60;73.30;;;;;;2579502;53;20955;-73
2021/12/09 06:55:23;;;;;;;6.00;2.83;;;7.60;73.30;;;;;;2322330;54;21012;-73
2021/12/09 06:57:50;;;;;;;4.75;2.42;;;7.60;73.30;;;;;;2341937;54;20973;-72
2021/12/09 07:00:21;;;;;;;3.70;1.80;;;7.60;73.40;;;;;;2341766;54;20939;-74
2021/12/09 07:02:47;;;;;;;3.87;2.08;;;7.60;73.40;;;;;;2318315;55;20925;-74
2021/12/09 07:05:14;;;;;;;5.10;1.85;;;7.60;73.50;;;;;;2341799;54;20980;-73
2021/12/09 07:07:40;;;;;;;4.60;2.15;;;7.60;73.50;;;;;;2341235;54;20984;-74
2021/12/09 07:10:08;;;;;;;5.07;2.20;;;7.60;73.50;;;;;;2559125;53;21004;-74
2021/12/09 07:12:35;;;;;;;4.53;2.08;;;7.60;73.40;;;;;;2341754;54;20941;-74
2021/12/09 07:15:04;;;;;;;4.95;2.03;;;7.70;73.40;;;;;;2322180;54;21532;-75
2021/12/09 07:17:30;;;;;;;4.50;2.17;;;7.60;73.20;;;;;;2322930;54;20976;-74
2021/12/09 07:19:56;;;;;;;4.75;2.55;;;7.70;73.30;;;;;;2326407;54;21351;-74
2021/12/09 07:22:23;;;;;;;4.30;2.33;;;7.70;73.20;;;;;;2572853;53;20925;-73
2021/12/09 07:24:50;;;;;;;6.80;2.50;;;7.70;73.20;;;;;;2315163;54;21032;-74
2021/12/09 07:27:16;;;;;;;4.07;1.80;;;7.70;73.30;;;;;;2316603;54;21017;-72
2021/12/09 07:29:43;;;;;;;4.30;1.98;;;7.70;73.30;;;;;;2560654;53;21053;-74
2021/12/09 07:32:12;;;;;;;4.35;2.25;;;7.60;73.30;;;;;;2341223;54;21004;-73
2021/12/09 07:34:44;;;;;;;4.65;2.10;;;7.70;73.20;;;;;;2324924;54;20946;-74
2021/12/09 07:37:10;;;;;;;7.07;3.30;;;7.60;73.10;;;;;;2584113;53;20941;-74
2021/12/09 07:39:37;;;;;;;6.85;3.37;;;7.70;73.10;;;;;;2341908;54;20920;-73
2021/12/09 07:42:03;;;;;;;6.18;3.00;;;7.70;73.20;;;;;;2323416;54;21744;-72
2021/12/09 07:44:30;;;;;;;8.98;4.25;;;7.70;73.10;;;;;;2337470;54;20941;-74
2021/12/09 07:46:57;;;;;;;15.75;7.60;;;7.70;73.20;;;;;;2587019;53;21016;-73
2021/12/09 07:49:26;;;;;;;13.82;7.72;;;7.70;73.30;;;;;;2341350;54;21016;-72
2021/12/09 07:51:53;;;;;;;13.10;5.85;;;7.70;73.30;;;;;;2587775;53;20989;-74
2021/12/09 07:54:19;;;;;;;8.45;3.67;;;7.70;73.30;;;;;;2587513;53;21020;-73
2021/12/09 07:56:46;;;;;;;7.53;2.90;;;7.70;73.40;;;;;;2341671;54;20986;-74
2021/12/09 07:59:13;;;;;;;4.37;2.25;;;7.70;73.40;;;;;;2319678;54;20942;-73
2021/12/09 08:01:40;;;;;;;6.22;2.37;;;7.70;73.40;;;;;;2335351;54;21014;-74
2021/12/09 08:04:07;;;;;;;6.07;2.40;;;7.70;73.50;;;;;;2325478;54;21535;-70
2021/12/09 08:06:36;;;;;;;4.85;2.00;;;7.70;73.50;;;;;;2343772;54;21256;-74
2021/12/09 08:09:05;;;;;;;3.87;1.98;;;7.70;73.50;;;;;;2319008;54;21411;-74
2021/12/09 08:11:36;;;;;;;3.40;1.70;;;7.70;73.50;;;;;;2322376;54;21029;-73
2021/12/09 08:14:04;;;;;;;4.30;1.77;;;7.70;73.60;;;;;;2332693;54;21424;-73
2021/12/09 08:16:33;;;;;;;3.10;1.58;;;7.80;73.60;;;;;;2325437;54;20953;-73
2021/12/09 08:19:00;;;;;;;3.40;1.33;;;7.80;73.60;;;;;;2339566;54;20929;-71
2021/12/09 08:21:26;;;;;;;4.25;1.40;;;7.80;73.60;;;;;;2563364;53;20987;-73
2021/12/09 08:23:53;;;;;;;3.85;1.70;;;7.80;73.70;;;;;;2334683;54;21922;-74
2021/12/09 08:26:20;;;;;;;4.40;2.25;;;7.80;73.60;;;;;;2341131;54;20973;-74
2021/12/09 08:28:46;;;;;;;5.18;2.58;;;7.80;73.60;;;;;;2555211;53;21780;-74
2021/12/09 08:31:12;;;;;;;6.30;2.33;;;7.90;73.60;;;;;;2586624;53;20937;-73
2021/12/09 08:33:41;;;;;;;5.15;2.05;;;7.90;73.70;;;;;;2318416;54;21023;-74
2021/12/09 08:36:15;;;;;;;6.15;2.80;;;7.90;73.70;;;;;;2341480;54;21084;-73
2021/12/09 08:38:41;;;;;;;5.12;2.37;;;7.90;73.70;;;;;;2341488;54;20952;-74
2021/12/09 08:41:08;;;;;;;4.72;2.22;;;7.90;73.80;;;;;;2341122;54;21111;-73
2021/12/09 08:43:35;;;;;;;5.00;2.33;;;7.90;73.90;;;;;;2587073;53;21020;-73
2021/12/09 08:46:07;;;;;;;5.45;2.30;;;8.00;74.00;;;;;;2587429;53;20945;-74
2021/12/09 08:48:34;;;;;;;5.95;2.55;;;8.00;73.90;;;;;;2555559;53;20947;-74
2021/12/09 08:51:01;;;;;;;4.82;2.55;;;8.00;73.80;;;;;;2584168;53;21712;-72
2021/12/09 08:53:27;;;;;;;5.57;2.67;;;8.00;73.80;;;;;;2555579;53;22057;-74
2021/12/09 08:55:56;;;;;;;6.68;2.85;;;8.00;73.90;;;;;;2562382;52;20964;-74
2021/12/09 08:58:28;;;;;;;6.40;3.03;;;8.10;73.80;;;;;;2327095;54;20977;-74
2021/12/09 09:00:56;;;;;;;5.35;2.90;;;8.10;73.60;;;;;;2340838;54;20956;-74
2021/12/09 09:03:24;;;;;;;6.07;2.90;;;8.10;73.60;;;;;;2341076;54;20988;-74
2021/12/09 09:05:50;;;;;;;6.60;3.30;;;8.10;73.60;;;;;;2341225;54;20969;-74
2021/12/09 09:08:17;;;;;;;7.05;3.17;;;8.10;73.70;;;;;;2560074;53;20983;-73
2021/12/09 09:10:45;;;;;;;10.32;3.85;;;8.10;73.60;;;;;;2571149;53;20941;-75
2021/12/09 09:13:12;;;;;;;6.72;3.10;;;8.10;73.60;;;;;;2316779;54;21060;-74
2021/12/09 09:15:38;;;;;;;6.68;3.20;;;8.10;73.50;;;;;;2341703;54;21699;-74
2021/12/09 09:18:05;;;;;;;6.68;2.90;;;8.10;73.60;;;;;;2579251;53;21515;-74
2021/12/09 09:20:31;;;;;;;6.20;3.30;;;8.10;73.80;;;;;;2323612;54;20949;-75
2021/12/09 09:22:58;;;;;;;7.78;4.18;;;8.10;73.60;;;;;;2340830;54;21008;-74
2021/12/09 09:25:29;;;;;;;8.55;3.42;;;8.20;73.60;;;;;;2340912;54;20981;-74
2021/12/09 09:27:58;;;;;;;6.47;2.83;;;8.10;73.60;;;;;;2319220;55;21115;-74
2021/12/09 09:30:27;;;;;;;5.80;3.12;;;8.20;73.60;;;;;;2319717;54;21383;-74
2021/12/09 09:32:54;;;;;;;6.22;3.42;;;8.20;73.80;;;;;;2555466;53;21018;-72
2021/12/09 09:35:20;;;;;;;6.62;3.40;;;8.20;73.70;;;;;;2575693;53;20986;-72
2021/12/09 09:37:48;;;;;;;6.70;3.22;;;8.20;73.60;;;;;;2320120;54;21027;-74
2021/12/09 09:40:16;;;;;;;6.53;3.33;;;8.20;73.60;;;;;;2325175;54;21096;-73
2021/12/09 09:42:58;;;;;;;8.35;3.75;;;8.20;74.40;;;;;;2339527;54;20937;-73
2021/12/09 09:45:25;;;;;;;5.40;3.00;;;8.20;73.70;;;;;;2341726;54;20949;-74
2021/12/09 09:47:53;;;;;;;7.30;3.53;;;8.30;73.80;;;;;;2341596;54;21009;-73
2021/12/09 09:50:20;;;;;;;7.18;3.60;;;8.30;73.80;;;;;;2341549;54;20973;-74
2021/12/09 09:52:46;;;;;;;6.97;3.40;;;8.30;74.00;;;;;;2341242;54;21881;-75
2021/12/09 09:55:20;;;;;;;5.45;3.20;;;8.30;73.90;;;;;;2330337;54;20943;-75
2021/12/09 09:57:49;;;;;;;7.85;3.80;;;8.30;74.00;;;;;;2331023;54;20938;-74
2021/12/09 10:00:16;;;;;;;6.18;3.33;;;8.40;73.90;;;;;;2341237;54;20953;-72
2021/12/09 10:02:43;;;;;;;8.60;3.20;;;8.40;74.00;;;;;;2339114;54;20986;-73
2021/12/09 10:05:10;;;;;;;7.55;3.80;;;8.40;74.10;;;;;;2322594;54;21049;-73
2021/12/09 10:07:36;;;;;;;5.72;3.42;;;8.40;74.10;;;;;;2580088;53;21980;-74
2021/12/09 10:10:05;;;;;;;7.75;3.67;;;8.40;74.00;;;;;;2562588;53;20945;-75
2021/12/09 10:12:31;;;;;;;5.97;3.08;;;8.50;73.90;;;;;;2581866;53;21953;-75
2021/12/09 10:14:57;;;;;;;4.97;3.05;;;8.50;74.00;;;;;;2559174;53;21001;-75
2021/12/09 10:17:28;;;;;;;6.47;3.28;;;8.50;73.90;;;;;;2334220;54;21046;-74
2021/12/09 10:19:59;;;;;;;5.57;3.40;;;8.50;73.90;;;;;;2324639;54;20921;-72
2021/12/09 10:22:28;;;;;;;6.22;3.35;;;8.50;73.90;;;;;;2586981;53;21030;-74
2021/12/09 10:24:57;;;;;;;8.50;3.70;;;8.60;73.90;;;;;;2552278;53;20939;-75
2021/12/09 10:27:29;;;;;;;6.95;3.12;;;8.60;73.90;;;;;;2581910;53;20946;-73
2021/12/09 10:30:18;;;;;;;6.03;2.97;;;8.60;73.90;;;;;;2340627;54;21694;-74
2021/12/09 10:32:44;;;;;;;6.30;3.03;;;8.60;73.60;;;;;;2318677;54;20954;-72
2021/12/09 10:35:15;;;;;;;6.62;3.05;;;8.70;74.00;;;;;;2587651;53;21013;-74
2021/12/09 10:37:42;;;;;;;6.15;2.80;;;8.70;74.00;;;;;;2587843;53;20971;-73
2021/12/09 10:40:11;;;;;;;5.40;2.70;;;8.70;74.20;;;;;;2340066;54;20970;-75
2021/12/09 10:42:45;;;;;;;5.78;2.78;;;8.70;74.30;;;;;;2321237;54;20973;-74
2021/12/09 10:45:44;;;;;;;8.20;2.80;;;8.80;74.70;;;;;;2318121;55;21080;-74
2021/12/09 10:48:26;;;;;;;5.05;2.83;;;8.90;75.00;;;;;;2298331;55;21012;-73
2021/12/09 10:51:24;;;;;;;6.03;2.90;;;9.00;77.30;;;;;;2340831;54;20997;-73
2021/12/09 10:53:54;;;;;;;6.12;3.47;;;9.30;79.20;;;;;;2555091;53;20969;-74
2021/12/09 10:56:30;;;;;;;5.82;3.40;;;9.60;80.80;;;;;;2317507;54;21054;-74
2021/12/09 10:58:56;;;;;;;6.15;3.42;;;9.90;81.00;;;;;;2321858;54;21373;-75
2021/12/09 11:01:24;;;;;;;8.60;3.65;;;10.20;80.20;;;;;;2337897;54;21480;-75
2021/12/09 11:03:54;;;;;;;5.85;2.95;;;10.50;79.90;;;;;;2587680;53;20941;-76
2021/12/09 11:06:33;;;;;;;6.00;2.80;;;10.80;79.70;;;;;;2587158;53;20914;-73
2021/12/09 11:09:00;;;;;;;8.90;3.53;;;11.10;79.20;;;;;;2587500;53;21013;-74
2021/12/09 11:11:35;;;;;;;5.18;2.67;;;11.30;78.80;;;;;;2587019;53;21781;-75
2021/12/09 11:14:11;;;;;;;8.75;3.08;;;11.60;77.10;;;;;;2583673;53;21039;-75
2021/12/09 11:16:50;;;;;;;7.05;3.60;;;11.70;75.20;;;;;;2320357;54;20949;-75
2021/12/09 11:19:41;;;;;;;6.47;2.78;;;11.80;74.40;;;;;;2344535;54;21541;-73
2021/12/09 11:22:10;;;;;;;;;;;11.90;72.80;;;;;;2591252;53;21664;-74
2021/12/09 11:24:41;;;;;;;6.22;2.62;;;11.90;71.50;;;;;;2341436;54;20115;-75
2021/12/09 11:27:23;;;;;;;5.25;2.60;;;11.80;72.10;;;;;;2341357;54;20987;-76
2021/12/09 11:29:53;;;;;;;;;;;11.70;71.20;;;;;;2344780;54;21472;-75
2021/12/09 11:32:45;;;;;;;5.32;2.37;;;11.70;70.10;;;;;;2587516;53;20178;-74
2021/12/09 11:35:17;;;;;;;5.85;2.60;;;11.60;71.00;;;;;;2318428;55;20933;-76
2021/12/09 11:37:58;;;;;;;6.18;2.62;;;11.50;70.90;;;;;;2310271;55;20933;-74
2021/12/09 11:40:41;;;;;;;4.62;2.37;;;11.50;71.20;;;;;;2313400;54;21058;-75
2021/12/09 11:43:10;;;;;;;8.10;2.80;;;11.40;71.60;;;;;;2554557;53;21126;-73
2021/12/09 11:45:46;;;;;;;4.28;2.10;;;11.50;72.60;;;;;;2583083;53;21013;-75
2021/12/09 11:48:12;;;;;;;3.83;2.05;;;11.50;72.20;;;;;;2323142;54;21755;-76
2021/12/09 11:50:45;;;;;;;5.12;2.10;;;11.60;72.40;;;;;;2460626;54;1846650;-75
2021/12/09 11:53:13;;;;;;;6.68;2.47;;;11.50;71.10;;;;;;2310512;54;21048;-75
2021/12/09 11:55:46;;;;;;;5.82;2.70;;;11.40;71.20;;;;;;2327023;54;20929;-74
2021/12/09 11:58:29;;;;;;;6.55;2.45;;;11.50;71.50;;;;;;2587726;53;20993;-74
2021/12/09 12:07:54;;;;;;;4.68;2.55;;;11.50;71.80;;;;;;2587392;53;21036;-76
2021/12/09 12:13:42;;;;;;;7.70;2.50;;;11.60;71.30;;;;;;2571934;53;21005;-75
2021/12/09 12:21:48;;;;;;;5.18;2.92;;;11.70;71.50;;;;;;2554043;53;21453;-73
2021/12/09 12:24:47;;;;;;;6.18;2.58;;;11.80;71.50;;;;;;2317738;54;21343;-74
2021/12/09 12:27:35;;;;;;;4.32;2.67;;;11.90;71.80;;;;;;2536498;54;21422;-75
2021/12/09 12:30:27;;;;;;;8.15;2.78;;;11.90;70.90;;;;;;2317145;54;20966;-76
2021/12/09 12:33:08;;;;;;;7.32;2.80;;;12.00;72.10;;;;;;2292364;54;21969;-76
2021/12/09 12:36:38;;;;;;;6.07;2.72;;;12.00;71.00;;;;;;2530677;54;21077;-74
2021/12/09 12:39:14;;;;;;;4.47;2.03;;;12.00;70.10;;;;;;2310468;54;21149;-75
2021/12/09 12:41:57;;;;;;;5.40;2.40;;;12.00;70.60;;;;;;2313036;54;20959;-76
2021/12/09 12:44:23;;;;;;;;;;;12.10;70.70;;;;;;2321026;55;20952;-74
2021/12/09 12:47:11;;;;;;;4.65;2.00;;;12.10;69.90;;;;;;2314900;55;20756;-76
2021/12/09 12:49:45;;;;;;;5.43;1.92;;;12.10;71.90;;;;;;2311112;54;21548;-75
2021/12/09 12:52:21;;;;;;;5.50;2.30;;;12.20;71.40;;;;;;2314830;54;21110;-75
2021/12/09 12:54:55;;;;;;;6.12;2.00;;;12.20;70.60;;;;;;2547901;54;20929;-74
2021/12/09 12:57:56;;;;;;;7.30;1.83;;;12.10;70.00;;;;;;2520672;54;21330;-74
2021/12/09 13:00:30;;;;;;;6.00;2.10;;;12.20;68.90;;;;;;2300356;54;21039;-75
2021/12/09 13:06:10;;;;;;;5.62;1.83;;;11.90;69.30;;;;;;2318378;54;21053;-73
2021/12/09 13:11:48;;;;;;;6.40;1.80;;;11.70;68.40;;;;;;2292683;54;21474;-74
2021/12/09 13:14:22;;;;;;;5.37;2.33;;;11.60;68.50;;;;;;2543181;54;21028;-75
2021/12/09 13:19:58;;;;;;;4.87;1.75;;;11.40;68.50;;;;;;2314946;54;20941;-74
2021/12/09 13:22:35;;;;;;;5.20;2.05;;;11.30;68.20;;;;;;2554327;54;20933;-75
2021/12/09 13:25:13;;;;;;;6.60;1.83;;;11.20;68.50;;;;;;2319379;54;20939;-75
2021/12/09 13:28:01;;;;;;;3.92;1.60;;;11.10;68.70;;;;;;2309778;53;21007;-75
2021/12/09 13:37:29;;;;;;;3.80;1.58;;;10.90;68.60;;;;;;2329176;54;21072;-75
2021/12/09 13:45:55;;;;;;;6.53;1.90;;;10.60;69.80;;;;;;2555325;54;21029;-75
2021/12/09 13:48:28;;;;;;;8.35;1.80;;;10.60;69.80;;;;;;2314446;54;21026;-75
2021/12/09 13:51:21;;;;;;;5.20;1.70;;;10.60;70.70;;;;;;2554842;54;20932;-76
2021/12/09 13:54:56;;;;;;;5.65;1.75;;;10.50;71.40;;;;;;2550416;53;20972;-75
2021/12/09 13:57:30;;;;;;;;;;;10.60;72.10;;;;;;2319397;54;21416;-75
2021/12/09 13:59:58;;;;;;;4.37;1.58;;;10.70;71.00;;;;;;2530989;53;20075;-75